createdAt,value
2023-04-28T00:00:41.317Z,99772.00
2023-04-28T00:03:09.335Z,99776.00
2023-04-28T00:05:37.341Z,99779.00
2023-04-28T00:08:06.596Z,99772.00
2023-04-28T00:10:34.753Z,99774.00
2023-04-28T00:13:02.672Z,99774.00
2023-04-28T00:15:30.827Z,99767.00
2023-04-28T00:18:00.077Z,99766.00
2023-04-28T00:20:27.981Z,99761.00
2023-04-28T00:22:55.844Z,99754.00
2023-04-28T00:25:23.721Z,99754.00
2023-04-28T00:27:51.609Z,99747.00
2023-04-28T00:30:19.763Z,99743.00
2023-04-28T00:32:47.676Z,99743.00
2023-04-28T00:35:17.024Z,99739.00
2023-04-28T00:37:44.883Z,99733.00
2023-04-28T00:40:13.711Z,99731.00
2023-04-28T00:42:41.702Z,99735.00
2023-04-28T00:45:10.757Z,99722.00
2023-04-28T00:47:39.217Z,99718.00
2023-04-28T00:50:10.259Z,99720.00
2023-04-28T00:52:39.960Z,99715.00
2023-04-28T00:55:10.552Z,99719.00
2023-04-28T00:57:39.087Z,99715.00
2023-04-28T01:00:08.950Z,99718.00
2023-04-28T01:02:38.140Z,99719.00
2023-04-28T01:05:07.349Z,99707.00
2023-04-28T01:07:35.657Z,99704.00
2023-04-28T01:10:08.345Z,99707.00
2023-04-28T01:12:36.814Z,99700.00
2023-04-28T01:15:05.721Z,99685.00
2023-04-28T01:17:34.272Z,99703.00
2023-04-28T01:20:04.633Z,99693.00
2023-04-28T01:22:32.592Z,99697.00
2023-04-28T01:25:03.384Z,99691.00
2023-04-28T01:27:31.881Z,99687.00
2023-04-28T01:29:59.772Z,99689.00
2023-04-28T01:32:27.677Z,99691.00
2023-04-28T01:34:57.325Z,99686.00
2023-04-28T01:37:25.396Z,99683.00
2023-04-28T01:39:55.220Z,99675.00
2023-04-28T01:42:24.507Z,99676.00
2023-04-28T01:44:52.355Z,99648.00
2023-04-28T01:47:20.580Z,99677.00
2023-04-28T01:49:50.012Z,99666.00
2023-04-28T01:52:19.723Z,99670.00
2023-04-28T01:54:48.006Z,99640.00
2023-04-28T01:57:17.743Z,99665.00
2023-04-28T01:59:48.083Z,99662.00
2023-04-28T02:02:16.420Z,99661.00
2023-04-28T02:04:44.499Z,99663.00
2023-04-28T02:07:12.417Z,99647.00
2023-04-28T02:09:40.327Z,99636.00
2023-04-28T02:12:08.286Z,99649.00
2023-04-28T02:14:36.310Z,99652.00
2023-04-28T02:17:05.710Z,99648.00
2023-04-28T02:19:34.606Z,99644.00
2023-04-28T02:22:02.542Z,99641.00
2023-04-28T02:24:30.609Z,99643.00
2023-04-28T02:26:59.564Z,99635.00
2023-04-28T02:29:30.143Z,99627.00
2023-04-28T02:32:00.188Z,99625.00
2023-04-28T02:34:29.573Z,99629.00
2023-04-28T02:36:57.449Z,99627.00
2023-04-28T02:39:27.035Z,99625.00
2023-04-28T02:41:57.763Z,99629.00
2023-04-28T02:44:26.198Z,99621.00
2023-04-28T02:46:54.200Z,99622.00
2023-04-28T02:49:22.093Z,99631.00
2023-04-28T02:51:51.426Z,99629.00
2023-04-28T02:54:27.230Z,99627.00
2023-04-28T02:56:56.175Z,99621.00
2023-04-28T02:59:25.517Z,99612.00
2023-04-28T03:01:53.437Z,99611.00
2023-04-28T03:04:21.689Z,99615.00
2023-04-28T03:06:52.454Z,99610.00
2023-04-28T03:09:20.470Z,99613.00
2023-04-28T03:11:48.409Z,99608.00
2023-04-28T03:14:16.566Z,99602.00
2023-04-28T03:16:45.233Z,99600.00
2023-04-28T03:19:13.489Z,99598.00
2023-04-28T03:21:41.380Z,99591.00
2023-04-28T03:24:10.593Z,99599.00
2023-04-28T03:26:38.514Z,99593.00
2023-04-28T03:29:06.884Z,99600.00
2023-04-28T03:31:34.944Z,99602.00
2023-04-28T03:34:03.350Z,99599.00
2023-04-28T03:36:32.042Z,99600.00
2023-04-28T03:39:07.183Z,99592.00
2023-04-28T03:41:36.923Z,99594.00
2023-04-28T03:44:23.534Z,99574.00
2023-04-28T03:46:52.690Z,99579.00
2023-04-28T03:49:20.728Z,99576.00
2023-04-28T03:51:50.027Z,99566.00
2023-04-28T03:54:18.297Z,99568.00
2023-04-28T03:56:47.666Z,99563.00
2023-04-28T03:59:16.299Z,99557.00
2023-04-28T04:01:44.212Z,99561.00
2023-04-28T04:04:13.204Z,99555.00
2023-04-28T04:06:41.298Z,99546.00
2023-04-28T04:09:10.871Z,99547.00
2023-04-28T04:11:39.205Z,99534.00
2023-04-28T04:14:08.616Z,99541.00
2023-04-28T04:16:37.423Z,99530.00
2023-04-28T04:19:06.430Z,99526.00
2023-04-28T04:21:42.034Z,99523.00
2023-04-28T04:24:10.000Z,99526.00
2023-04-28T04:26:38.514Z,99526.00
2023-04-28T04:29:23.704Z,99522.00
2023-04-28T04:31:52.475Z,99514.00
2023-04-28T04:34:20.439Z,99518.00
2023-04-28T04:36:48.300Z,99521.00
2023-04-28T04:39:16.352Z,99516.00
2023-04-28T04:41:44.206Z,99508.00
2023-04-28T04:44:35.325Z,99513.00
2023-04-28T04:47:03.544Z,99517.00
2023-04-28T04:49:33.439Z,99515.00
2023-04-28T04:52:03.009Z,99512.00
2023-04-28T04:54:31.410Z,99509.00
2023-04-28T04:57:00.266Z,99509.00
2023-04-28T04:59:49.497Z,99511.00
2023-04-28T05:02:19.173Z,99497.00
2023-04-28T05:04:47.365Z,99497.00
2023-04-28T05:07:16.553Z,99496.00
2023-04-28T05:09:44.450Z,99491.00
2023-04-28T05:12:12.948Z,99496.00
2023-04-28T05:14:40.864Z,99488.00
2023-04-28T05:17:10.104Z,99489.00
2023-04-28T05:19:40.197Z,99477.00
2023-04-28T05:22:08.700Z,99486.00
2023-04-28T05:24:38.255Z,99473.00
2023-04-28T05:27:06.159Z,99470.00
2023-04-28T05:29:35.711Z,99468.00
2023-04-28T05:32:03.647Z,99468.00
2023-04-28T05:34:33.694Z,99477.00
2023-04-28T05:37:02.090Z,99468.00
2023-04-28T05:39:31.709Z,99455.00
2023-04-28T05:42:04.400Z,99468.00
2023-04-28T05:44:32.572Z,99477.00
2023-04-28T05:47:01.656Z,99482.00
2023-04-28T05:49:29.726Z,99474.00
2023-04-28T05:51:59.238Z,99474.00
2023-04-28T05:54:27.168Z,99471.00
2023-04-28T05:56:59.029Z,99473.00
2023-04-28T05:59:28.490Z,99475.00
2023-04-28T06:01:56.355Z,99467.00
2023-04-28T06:04:25.514Z,99461.00
2023-04-28T06:06:53.823Z,99456.00
2023-04-28T06:09:23.489Z,99457.00
2023-04-28T06:11:51.418Z,99457.00
2023-04-28T06:14:19.534Z,99458.00
2023-04-28T06:16:47.607Z,99453.00
2023-04-28T06:19:18.694Z,99462.00
2023-04-28T06:21:47.046Z,99456.00
2023-04-28T06:24:15.596Z,99450.00
2023-04-28T06:26:47.673Z,99448.00
2023-04-28T06:29:15.739Z,99452.00
2023-04-28T06:31:43.685Z,99442.00
2023-04-28T06:34:11.624Z,99436.00
2023-04-28T06:36:39.552Z,99444.00
2023-04-28T06:39:07.677Z,99435.00
2023-04-28T06:41:36.247Z,99435.00
2023-04-28T06:44:07.176Z,99437.00
2023-04-28T06:46:37.830Z,99436.00
2023-04-28T06:49:05.755Z,99434.00
2023-04-28T06:51:33.748Z,99435.00
2023-04-28T06:54:02.337Z,99435.00
2023-04-28T06:56:30.498Z,99434.00
2023-04-28T06:58:58.972Z,99437.00
2023-04-28T07:01:28.402Z,99424.00
2023-04-28T07:03:56.594Z,99426.00
2023-04-28T07:06:24.727Z,99423.00
2023-04-28T07:08:52.851Z,99425.00
2023-04-28T07:11:20.794Z,99424.00
2023-04-28T07:13:51.463Z,99426.00
2023-04-28T07:16:19.749Z,99417.00
2023-04-28T07:18:49.117Z,99417.00
2023-04-28T07:21:17.472Z,99412.00
2023-04-28T07:23:45.950Z,99405.00
2023-04-28T07:26:16.265Z,99404.00
2023-04-28T07:28:45.048Z,99396.00
2023-04-28T07:31:12.952Z,99403.00
2023-04-28T07:33:41.350Z,99400.00
2023-04-28T07:36:11.043Z,99402.00
2023-04-28T07:38:39.062Z,99396.00
2023-04-28T07:41:08.828Z,99375.00
2023-04-28T07:43:39.156Z,99382.00
2023-04-28T07:46:09.752Z,99377.00
2023-04-28T07:48:37.830Z,99374.00
2023-04-28T07:51:06.054Z,99384.00
2023-04-28T07:53:35.379Z,99376.00
2023-04-28T07:56:03.352Z,99382.00
2023-04-28T07:58:32.301Z,99377.00
2023-04-28T08:01:00.171Z,99383.00
2023-04-28T08:03:28.265Z,99380.00
2023-04-28T08:05:56.524Z,99387.00
2023-04-28T08:08:24.942Z,99390.00
2023-04-28T08:10:54.898Z,99397.00
2023-04-28T08:13:22.829Z,99381.00
2023-04-28T08:15:50.792Z,99385.00
2023-04-28T08:18:19.284Z,99387.00
2023-04-28T08:20:47.182Z,99383.00
2023-04-28T08:23:15.069Z,99371.00
2023-04-28T08:25:42.989Z,99372.00
2023-04-28T08:28:12.219Z,99370.00
2023-04-28T08:30:40.228Z,99372.00
2023-04-28T08:33:08.825Z,99376.00
2023-04-28T08:35:36.820Z,99379.00
2023-04-28T08:38:05.071Z,99372.00
2023-04-28T08:40:32.986Z,99367.00
2023-04-28T08:43:01.403Z,99372.00
2023-04-28T08:45:32.674Z,99367.00
2023-04-28T08:48:02.498Z,99369.00
2023-04-28T08:50:34.089Z,99370.00
2023-04-28T08:53:05.574Z,99364.00
2023-04-28T08:55:35.033Z,99363.00
2023-04-28T08:58:04.141Z,99365.00
2023-04-28T09:00:33.396Z,99370.00
2023-04-28T09:03:01.866Z,99366.00
2023-04-28T09:05:29.926Z,99358.00
2023-04-28T09:07:57.849Z,99361.00
2023-04-28T09:10:27.458Z,99366.00
2023-04-28T09:12:57.408Z,99361.00
2023-04-28T09:15:33.312Z,99362.00
2023-04-28T09:18:04.821Z,99370.00
2023-04-28T09:20:35.401Z,99370.00
2023-04-28T09:23:18.318Z,99373.00
2023-04-28T09:26:02.121Z,99377.00
2023-04-28T09:28:30.531Z,99378.00
2023-04-28T09:30:58.681Z,99374.00
2023-04-28T09:33:28.102Z,99347.00
2023-04-28T09:35:56.435Z,99368.00
2023-04-28T09:38:25.005Z,99365.00
2023-04-28T09:40:59.117Z,99357.00
2023-04-28T09:43:30.124Z,99356.00
2023-04-28T09:46:00.697Z,99354.00
2023-04-28T09:48:33.364Z,99354.00
2023-04-28T09:51:03.114Z,99355.00
2023-04-28T09:53:32.014Z,99356.00
2023-04-28T09:56:03.330Z,99369.00
2023-04-28T09:58:33.121Z,99362.00
2023-04-28T10:01:02.255Z,99351.00
2023-04-28T10:03:32.748Z,99374.00
2023-04-28T10:06:01.063Z,99372.00
2023-04-28T10:08:29.471Z,99369.00
2023-04-28T10:10:58.649Z,99377.00
2023-04-28T10:13:27.073Z,99371.00
2023-04-28T10:15:56.068Z,99372.00
2023-04-28T10:18:25.062Z,99348.00
2023-04-28T10:21:03.108Z,99366.00
2023-04-28T10:24:04.767Z,99370.00
2023-04-28T10:27:04.071Z,99373.00
2023-04-28T10:29:33.490Z,99371.00
2023-04-28T10:32:26.456Z,99374.00
2023-04-28T10:34:55.850Z,99373.00
2023-04-28T10:38:05.155Z,99357.00
2023-04-28T10:40:34.243Z,99370.00
2023-04-28T10:43:02.848Z,99362.00
2023-04-28T10:46:05.843Z,99361.00
2023-04-28T10:48:58.060Z,99359.00
2023-04-28T10:51:31.816Z,99348.00
2023-04-28T10:54:21.198Z,99352.00
2023-04-28T10:57:17.032Z,99345.00
2023-04-28T10:59:45.050Z,99352.00
2023-04-28T11:02:44.230Z,99336.00
2023-04-28T11:05:19.104Z,99354.00
2023-04-28T11:08:33.425Z,99354.00
2023-04-28T11:11:24.338Z,99345.00
2023-04-28T11:13:54.199Z,99350.00
2023-04-28T11:16:25.355Z,99338.00
2023-04-28T11:18:59.922Z,99342.00
2023-04-28T11:21:29.353Z,99342.00
2023-04-28T11:23:59.568Z,99331.00
2023-04-28T11:26:29.655Z,99339.00
2023-04-28T11:28:59.426Z,99346.00
2023-04-28T11:31:28.784Z,99346.00
2023-04-28T11:34:04.561Z,99340.00
2023-04-28T11:36:36.366Z,99340.00
2023-04-28T11:39:07.539Z,99315.00
2023-04-28T11:41:38.055Z,99333.00
2023-04-28T11:44:13.979Z,99324.00
2023-04-28T11:46:51.505Z,99326.00
2023-04-28T11:49:20.612Z,99339.00
2023-04-28T11:51:50.318Z,99332.00
2023-04-28T11:54:23.567Z,99330.00
2023-04-28T11:56:54.697Z,99320.00
2023-04-28T11:59:27.395Z,99329.00
2023-04-28T12:01:59.071Z,99327.00
2023-04-28T12:04:32.920Z,99323.00
2023-04-28T12:07:04.345Z,99311.00
2023-04-28T12:09:33.216Z,99304.00
2023-04-28T12:12:04.913Z,99310.00
2023-04-28T12:14:35.585Z,99309.00
2023-04-28T12:17:04.048Z,99308.00
2023-04-28T12:19:44.663Z,99305.00
2023-04-28T12:22:12.751Z,99298.00
2023-04-28T12:24:40.953Z,99299.00
2023-04-28T12:27:22.802Z,99290.00
2023-04-28T12:29:50.955Z,99298.00
2023-04-28T12:32:20.228Z,99293.00
2023-04-28T12:34:49.858Z,99292.00
2023-04-28T12:37:17.792Z,99288.00
2023-04-28T12:39:45.954Z,99289.00
2023-04-28T12:42:14.057Z,99296.00
2023-04-28T12:44:43.271Z,99296.00
2023-04-28T12:47:11.827Z,99296.00
2023-04-28T12:49:39.790Z,99291.00
2023-04-28T12:52:07.915Z,99294.00
2023-04-28T12:54:35.789Z,99289.00
2023-04-28T12:57:04.001Z,99280.00
2023-04-28T12:59:32.663Z,99277.00
2023-04-28T13:02:02.154Z,99277.00
2023-04-28T13:04:31.225Z,99277.00
2023-04-28T13:07:00.359Z,99268.00
2023-04-28T13:09:28.378Z,99262.00
2023-04-28T13:11:56.578Z,99263.00
2023-04-28T13:14:25.070Z,99256.00
2023-04-28T13:16:53.699Z,99262.00
2023-04-28T13:19:23.019Z,99247.00
2023-04-28T13:21:50.867Z,99250.00
2023-04-28T13:24:18.718Z,99251.00
2023-04-28T13:26:46.879Z,99252.00
2023-04-28T13:29:15.234Z,99249.00
2023-04-28T13:31:43.495Z,99246.00
2023-04-28T13:34:16.005Z,99241.00
2023-04-28T13:36:47.973Z,99235.00
2023-04-28T13:39:15.864Z,99228.00
2023-04-28T13:41:43.870Z,99229.00
2023-04-28T13:44:11.896Z,99220.00
2023-04-28T13:46:39.799Z,99220.00
2023-04-28T13:49:07.714Z,99216.00
2023-04-28T13:51:35.586Z,99205.00
2023-04-28T13:54:08.076Z,99211.00
2023-04-28T13:56:36.865Z,99207.00
2023-04-28T13:59:04.974Z,99206.00
2023-04-28T14:01:33.041Z,99202.00
2023-04-28T14:04:01.490Z,99195.00
2023-04-28T14:06:29.666Z,99205.00
2023-04-28T14:08:57.631Z,99199.00
2023-04-28T14:11:27.113Z,99200.00
2023-04-28T14:13:55.047Z,99201.00
2023-04-28T14:16:23.114Z,99193.00
2023-04-28T14:18:51.777Z,99190.00
2023-04-28T14:21:19.670Z,99187.00
2023-04-28T14:23:47.595Z,99185.00
2023-04-28T14:26:15.448Z,99190.00
2023-04-28T14:28:44.636Z,99189.00
2023-04-28T14:31:14.347Z,99187.00
2023-04-28T14:33:42.502Z,99177.00
2023-04-28T14:36:10.702Z,99176.00
2023-04-28T14:38:40.299Z,99184.00
2023-04-28T14:41:08.328Z,99178.00
2023-04-28T14:43:36.398Z,99173.00
2023-04-28T14:46:06.130Z,99175.00
2023-04-28T14:48:34.603Z,99177.00
2023-04-28T14:51:02.699Z,99178.00
2023-04-28T14:53:31.894Z,99159.00
2023-04-28T14:56:11.280Z,99171.00
2023-04-28T14:58:46.310Z,99169.00
2023-04-28T15:01:15.985Z,99167.00
2023-04-28T15:03:44.859Z,99161.00
2023-04-28T15:06:13.321Z,99164.00
2023-04-28T15:08:42.102Z,99159.00
2023-04-28T15:11:10.362Z,99146.00
2023-04-28T15:13:39.947Z,99142.00
2023-04-28T15:16:09.786Z,99140.00
2023-04-28T15:18:39.366Z,99140.00
2023-04-28T15:21:08.640Z,99137.00
2023-04-28T15:23:36.902Z,99143.00
2023-04-28T15:26:05.012Z,99147.00
2023-04-28T15:28:32.894Z,99147.00
2023-04-28T15:31:00.932Z,99144.00
2023-04-28T15:33:29.142Z,99129.00
2023-04-28T15:35:58.614Z,99140.00
2023-04-28T15:38:29.909Z,99134.00
2023-04-28T15:40:58.329Z,99139.00
2023-04-28T15:43:26.335Z,99139.00
2023-04-28T15:45:54.290Z,99134.00
2023-04-28T15:48:23.223Z,99125.00
2023-04-28T15:50:51.159Z,99139.00
2023-04-28T15:53:20.685Z,99126.00
2023-04-28T15:55:48.688Z,99125.00
2023-04-28T15:58:16.594Z,99126.00
2023-04-28T16:00:45.839Z,99123.00
2023-04-28T16:03:14.091Z,99116.00
2023-04-28T16:05:42.154Z,99109.00
2023-04-28T16:08:10.251Z,99105.00
2023-04-28T16:10:41.195Z,99117.00
2023-04-28T16:13:11.299Z,99120.00
2023-04-28T16:15:40.069Z,99117.00
2023-04-28T16:18:08.395Z,99117.00
2023-04-28T16:20:36.714Z,99102.00
2023-04-28T16:23:07.466Z,99092.00
2023-04-28T16:25:35.352Z,99103.00
2023-04-28T16:28:04.707Z,99096.00
2023-04-28T16:30:32.921Z,99089.00
2023-04-28T16:33:00.916Z,99091.00
2023-04-28T16:35:28.968Z,99085.00
2023-04-28T16:37:57.123Z,99090.00
2023-04-28T16:40:25.121Z,99090.00
2023-04-28T16:42:52.951Z,99087.00
2023-04-28T16:45:23.550Z,99084.00
2023-04-28T16:47:51.642Z,99096.00
2023-04-28T16:50:19.651Z,99089.00
2023-04-28T16:52:47.502Z,99095.00
2023-04-28T16:55:15.641Z,99087.00
2023-04-28T16:57:43.518Z,99086.00
2023-04-28T17:00:13.538Z,99077.00
2023-04-28T17:02:42.905Z,99082.00
2023-04-28T17:05:11.635Z,99083.00
2023-04-28T17:07:39.555Z,99075.00
2023-04-28T17:10:08.789Z,99088.00
2023-04-28T17:12:36.696Z,99076.00
2023-04-28T17:15:05.696Z,99075.00
2023-04-28T17:17:33.937Z,99063.00
2023-04-28T17:20:03.494Z,99068.00
2023-04-28T17:22:32.876Z,99063.00
2023-04-28T17:25:00.934Z,99067.00
2023-04-28T17:27:28.797Z,99063.00
2023-04-28T17:29:56.717Z,99065.00
2023-04-28T17:32:24.936Z,99060.00
2023-04-28T17:34:53.032Z,99061.00
2023-04-28T17:37:22.885Z,99064.00
2023-04-28T17:39:51.884Z,99051.00
2023-04-28T17:42:20.066Z,99060.00
2023-04-28T17:44:47.931Z,99060.00
2023-04-28T17:47:17.403Z,99067.00
2023-04-28T17:49:45.740Z,99061.00
2023-04-28T17:52:15.383Z,99059.00
2023-04-28T17:54:44.660Z,99055.00
2023-04-28T17:57:13.025Z,99056.00
2023-04-28T17:59:42.438Z,99059.00
2023-04-28T18:02:11.105Z,99059.00
2023-04-28T18:04:39.386Z,99050.00
2023-04-28T18:07:07.765Z,99059.00
2023-04-28T18:09:35.635Z,99052.00
2023-04-28T18:12:05.520Z,99056.00
2023-04-28T18:14:33.425Z,99065.00
2023-04-28T18:17:01.834Z,99076.00
2023-04-28T18:19:31.017Z,99069.00
2023-04-28T18:22:00.078Z,99066.00
2023-04-28T18:24:28.168Z,99070.00
2023-04-28T18:26:56.030Z,99073.00
2023-04-28T18:29:25.473Z,99073.00
2023-04-28T18:31:53.400Z,99076.00
2023-04-28T18:34:21.578Z,99080.00
2023-04-28T18:36:49.947Z,99088.00
2023-04-28T18:39:18.503Z,99084.00
2023-04-28T18:41:46.432Z,99084.00
2023-04-28T18:44:14.389Z,99084.00
2023-04-28T18:46:43.603Z,99077.00
2023-04-28T18:49:12.692Z,99076.00
2023-04-28T18:51:40.662Z,99066.00
2023-04-28T18:54:08.569Z,99064.00
2023-04-28T18:56:37.067Z,99069.00
2023-04-28T18:59:05.856Z,99068.00
2023-04-28T19:01:33.838Z,99058.00
2023-04-28T19:04:04.144Z,99080.00
2023-04-28T19:06:33.741Z,99079.00
2023-04-28T19:09:02.256Z,99078.00
2023-04-28T19:11:30.875Z,99079.00
2023-04-28T19:13:59.202Z,99080.00
2023-04-28T19:16:27.234Z,99071.00
2023-04-28T19:18:55.174Z,99065.00
2023-04-28T19:21:24.473Z,99069.00
2023-04-28T19:23:53.231Z,99068.00
2023-04-28T19:26:21.164Z,99068.00
2023-04-28T19:28:49.050Z,99063.00
2023-04-28T19:31:17.055Z,99066.00
2023-04-28T19:33:44.937Z,99057.00
2023-04-28T19:36:12.873Z,99056.00
2023-04-28T19:38:42.096Z,99056.00
2023-04-28T19:41:10.013Z,99060.00
2023-04-28T19:43:38.089Z,99055.00
2023-04-28T19:46:06.020Z,99057.00
2023-04-28T19:48:33.958Z,99061.00
2023-04-28T19:51:02.255Z,99056.00
2023-04-28T19:53:30.170Z,99065.00
2023-04-28T19:56:01.821Z,99050.00
2023-04-28T19:58:29.756Z,99053.00
2023-04-28T20:00:58.303Z,99056.00
2023-04-28T20:03:26.513Z,99051.00
2023-04-28T20:05:54.480Z,99056.00
2023-04-28T20:08:24.174Z,99055.00
2023-04-28T20:10:52.175Z,99050.00
2023-04-28T20:13:21.372Z,99052.00
2023-04-28T20:15:49.348Z,99048.00
2023-04-28T20:18:17.291Z,99047.00
2023-04-28T20:20:45.327Z,99044.00
2023-04-28T20:23:13.289Z,99050.00
2023-04-28T20:25:41.236Z,99036.00
2023-04-28T20:28:09.100Z,99037.00
2023-04-28T20:30:38.351Z,99038.00
2023-04-28T20:33:06.174Z,99031.00
2023-04-28T20:35:34.205Z,99042.00
2023-04-28T20:38:02.146Z,99036.00
2023-04-28T20:40:31.125Z,99034.00
2023-04-28T20:43:01.629Z,99040.00
2023-04-28T20:45:29.603Z,99031.00
2023-04-28T20:47:59.251Z,99031.00
2023-04-28T20:50:28.309Z,99032.00
2023-04-28T20:52:56.179Z,99038.00
2023-04-28T20:55:24.338Z,99040.00
2023-04-28T20:57:52.241Z,99032.00
2023-04-28T21:00:20.274Z,99039.00
2023-04-28T21:02:48.273Z,99030.00
2023-04-28T21:05:18.165Z,99028.00
2023-04-28T21:07:46.022Z,99030.00
2023-04-28T21:10:14.338Z,99028.00
2023-04-28T21:12:42.319Z,99027.00
2023-04-28T21:15:11.174Z,99024.00
2023-04-28T21:17:39.163Z,99026.00
2023-04-28T21:20:09.253Z,99014.00
2023-04-28T21:22:38.870Z,99004.00
2023-04-28T21:25:08.381Z,99009.00
2023-04-28T21:27:36.247Z,98997.00
2023-04-28T21:30:04.816Z,98994.00
2023-04-28T21:32:32.844Z,98990.00
2023-04-28T21:35:00.687Z,98992.00
2023-04-28T21:37:28.847Z,98995.00
2023-04-28T21:39:58.786Z,98998.00
2023-04-28T21:42:31.486Z,99012.00
2023-04-28T21:44:59.433Z,99029.00
2023-04-28T21:47:28.171Z,99024.00
2023-04-28T21:49:56.106Z,99029.00
2023-04-28T21:52:24.000Z,99025.00
2023-04-28T21:54:51.854Z,99034.00
2023-04-28T21:57:21.273Z,99036.00
2023-04-28T21:59:49.798Z,99037.00
2023-04-28T22:02:18.265Z,99032.00
2023-04-28T22:04:46.832Z,99034.00
2023-04-28T22:07:14.760Z,99035.00
2023-04-28T22:09:42.631Z,99033.00
2023-04-28T22:12:10.483Z,99028.00
2023-04-28T22:14:41.581Z,99019.00
2023-04-28T22:17:09.794Z,99030.00
2023-04-28T22:19:37.816Z,99017.00
2023-04-28T22:22:06.909Z,99024.00
2023-04-28T22:24:34.870Z,99015.00
2023-04-28T22:27:03.180Z,99010.00
2023-04-28T22:29:31.164Z,99008.00
2023-04-28T22:32:00.432Z,99003.00
2023-04-28T22:34:28.238Z,98996.00
2023-04-28T22:36:56.705Z,98987.00
2023-04-28T22:39:26.737Z,98986.00
2023-04-28T22:41:54.698Z,98986.00
2023-04-28T22:44:22.845Z,98976.00
2023-04-28T22:46:50.817Z,98974.00
2023-04-28T22:49:24.597Z,98975.00
2023-04-28T22:51:52.569Z,98985.00
2023-04-28T22:54:20.417Z,98986.00
2023-04-28T22:56:48.305Z,98980.00
2023-04-28T22:59:16.304Z,98986.00
2023-04-28T23:01:44.373Z,98988.00
2023-04-28T23:04:12.842Z,98991.00
2023-04-28T23:06:42.141Z,98991.00
2023-04-28T23:09:10.281Z,98989.00
2023-04-28T23:11:38.100Z,98986.00
2023-04-28T23:14:06.066Z,98980.00
2023-04-28T23:16:33.952Z,98982.00
2023-04-28T23:19:01.851Z,98980.00
2023-04-28T23:21:29.791Z,98981.00
2023-04-28T23:23:58.961Z,98986.00
2023-04-28T23:26:26.875Z,98987.00
2023-04-28T23:28:54.749Z,98978.00
2023-04-28T23:31:22.798Z,98981.00
2023-04-28T23:33:51.266Z,98975.00
2023-04-28T23:36:20.306Z,98976.00
2023-04-28T23:38:48.472Z,98989.00
2023-04-28T23:41:18.011Z,98984.00
2023-04-28T23:43:45.883Z,98995.00
2023-04-28T23:46:14.379Z,98993.00
2023-04-28T23:48:42.324Z,98987.00
2023-04-28T23:53:47.000Z,98946.00
2023-04-28T23:56:17.050Z,99005.00
2023-04-28T23:58:45.715Z,98995.00
